createdAt,value
2023-06-28T00:01:47.101Z,3.59
2023-06-28T00:04:19.652Z,3.68
2023-06-28T00:06:49.523Z,3.39
2023-06-28T00:09:19.456Z,3.86
2023-06-28T00:11:49.403Z,3.80
2023-06-28T00:14:19.128Z,3.78
2023-06-28T00:16:49.121Z,3.57
2023-06-28T00:19:28.316Z,3.68
2023-06-28T00:21:58.314Z,3.63
2023-06-28T00:24:28.881Z,3.48
2023-06-28T00:26:58.599Z,3.60
2023-06-28T00:29:28.256Z,3.38
2023-06-28T00:31:57.996Z,3.37
2023-06-28T00:34:30.240Z,3.45
2023-06-28T00:36:59.983Z,3.53
2023-06-28T00:39:29.666Z,3.49
2023-06-28T00:41:59.472Z,3.38
2023-06-28T00:44:30.910Z,3.36
2023-06-28T00:47:01.816Z,3.66
2023-06-28T00:49:35.948Z,3.35
2023-06-28T00:52:08.228Z,3.16
2023-06-28T00:54:38.051Z,3.37
2023-06-28T00:57:08.370Z,3.34
2023-06-28T00:59:38.349Z,3.33
2023-06-28T01:02:08.362Z,3.22
2023-06-28T01:04:41.807Z,3.20
2023-06-28T01:07:12.178Z,3.30
2023-06-28T01:09:46.408Z,3.33
2023-06-28T01:12:16.231Z,3.05
2023-06-28T01:14:45.985Z,3.25
2023-06-28T01:17:16.864Z,3.65
2023-06-28T01:19:49.321Z,3.83
2023-06-28T01:22:19.049Z,3.99
2023-06-28T01:24:51.511Z,4.12
2023-06-28T01:27:21.565Z,4.25
2023-06-28T01:29:54.399Z,4.54
2023-06-28T01:32:24.101Z,4.70
2023-06-28T01:34:54.021Z,5.15
2023-06-28T01:37:25.977Z,4.97
2023-06-28T01:39:58.369Z,4.72
2023-06-28T01:42:28.322Z,4.99
2023-06-28T01:44:58.314Z,5.15
2023-06-28T01:47:30.103Z,5.06
2023-06-28T01:50:00.010Z,5.06
2023-06-28T01:52:30.123Z,5.35
2023-06-28T01:55:02.437Z,5.53
2023-06-28T01:57:32.344Z,5.53
2023-06-28T02:00:08.776Z,5.58
2023-06-28T02:02:47.410Z,5.50
2023-06-28T02:05:17.326Z,5.64
2023-06-28T02:07:47.203Z,5.63
2023-06-28T02:10:19.922Z,5.54
2023-06-28T02:12:49.621Z,5.63
2023-06-28T02:15:19.416Z,5.92
2023-06-28T02:17:49.281Z,5.53
2023-06-28T02:20:20.328Z,5.44
2023-06-28T02:22:50.135Z,5.52
2023-06-28T02:25:22.487Z,5.53
2023-06-28T02:27:52.492Z,5.38
2023-06-28T02:30:22.239Z,5.32
2023-06-28T02:32:52.342Z,5.15
2023-06-28T02:35:22.065Z,5.32
2023-06-28T02:37:51.810Z,5.42
2023-06-28T02:40:25.878Z,5.86
2023-06-28T02:42:55.574Z,5.76
2023-06-28T02:45:25.377Z,5.81
2023-06-28T02:47:55.906Z,5.67
2023-06-28T02:50:25.776Z,5.83
2023-06-28T02:53:04.969Z,5.98
2023-06-28T02:55:37.547Z,5.73
2023-06-28T02:58:09.769Z,6.21
2023-06-28T03:00:42.425Z,6.40
2023-06-28T03:03:14.678Z,6.50
2023-06-28T03:05:47.090Z,6.70
2023-06-28T03:08:17.340Z,6.37
2023-06-28T03:10:49.806Z,6.18
2023-06-28T03:13:19.552Z,6.34
2023-06-28T03:15:49.369Z,5.89
2023-06-28T03:18:22.385Z,6.09
2023-06-28T03:20:52.223Z,5.90
2023-06-28T03:23:21.960Z,5.73
2023-06-28T03:25:54.398Z,5.88
2023-06-28T03:28:24.322Z,5.88
2023-06-28T03:30:54.085Z,5.85
2023-06-28T03:33:24.176Z,5.66
2023-06-28T03:35:53.858Z,5.41
2023-06-28T03:38:23.522Z,5.24
2023-06-28T03:40:56.014Z,5.31
2023-06-28T03:43:25.706Z,5.04
2023-06-28T03:45:55.804Z,5.13
2023-06-28T03:48:26.505Z,4.86
2023-06-28T03:50:56.196Z,4.81
2023-06-28T03:53:27.344Z,4.27
2023-06-28T03:55:59.635Z,4.26
2023-06-28T03:58:29.344Z,3.95
2023-06-28T04:00:59.076Z,3.91
2023-06-28T04:03:28.988Z,4.16
2023-06-28T04:05:58.785Z,4.03
2023-06-28T04:08:29.113Z,4.01
2023-06-28T04:11:01.410Z,3.70
2023-06-28T04:13:31.111Z,3.66
2023-06-28T04:16:00.822Z,3.67
2023-06-28T04:18:30.576Z,3.93
2023-06-28T04:21:00.388Z,4.05
2023-06-28T04:23:30.059Z,4.20
2023-06-28T04:26:02.355Z,4.60
2023-06-28T04:28:32.039Z,5.18
2023-06-28T04:31:01.881Z,5.31
2023-06-28T04:33:31.771Z,5.48
2023-06-28T04:36:03.049Z,5.71
2023-06-28T04:38:33.923Z,5.51
2023-06-28T04:41:06.828Z,5.75
2023-06-28T04:43:42.075Z,5.98
2023-06-28T04:46:13.547Z,5.97
2023-06-28T04:48:43.844Z,6.24
2023-06-28T04:51:13.708Z,6.40
2023-06-28T04:53:43.459Z,6.29
2023-06-28T04:56:15.787Z,6.53
2023-06-28T04:58:45.450Z,6.23
2023-06-28T05:01:15.183Z,6.96
2023-06-28T05:03:48.041Z,6.67
2023-06-28T05:06:18.392Z,6.82
2023-06-28T05:08:48.495Z,6.43
2023-06-28T05:11:20.778Z,6.70
2023-06-28T05:13:50.564Z,6.38
2023-06-28T05:16:20.324Z,6.32
2023-06-28T05:18:50.112Z,6.29
2023-06-28T05:21:19.838Z,6.02
2023-06-28T05:23:49.524Z,5.32
2023-06-28T05:26:21.790Z,5.23
2023-06-28T05:28:51.486Z,5.66
2023-06-28T05:31:21.319Z,4.96
2023-06-28T05:33:51.045Z,4.94
2023-06-28T05:36:22.157Z,5.36
2023-06-28T05:38:53.897Z,5.41
2023-06-28T05:41:26.176Z,5.36
2023-06-28T05:43:55.916Z,5.88
2023-06-28T05:46:25.751Z,5.48
2023-06-28T05:48:55.743Z,5.66
2023-06-28T05:51:25.582Z,5.59
2023-06-28T05:53:55.291Z,5.73
2023-06-28T05:56:28.270Z,5.85
2023-06-28T05:58:58.001Z,5.58
2023-06-28T06:01:28.034Z,5.54
2023-06-28T06:03:57.830Z,5.32
2023-06-28T06:06:27.574Z,5.19
2023-06-28T06:08:59.304Z,5.49
2023-06-28T06:11:33.148Z,5.43
2023-06-28T06:14:02.835Z,5.59
2023-06-28T06:16:32.564Z,5.48
2023-06-28T06:19:02.315Z,5.46
2023-06-28T06:21:32.095Z,5.35
2023-06-28T06:24:03.004Z,5.70
2023-06-28T06:26:35.269Z,5.69
2023-06-28T06:29:05.220Z,5.99
2023-06-28T06:31:35.154Z,6.25
2023-06-28T06:34:04.874Z,6.14
2023-06-28T06:36:34.561Z,6.13
2023-06-28T06:39:04.374Z,6.21
2023-06-28T06:41:36.749Z,6.02
2023-06-28T06:44:06.694Z,6.30
2023-06-28T06:46:37.680Z,6.19
2023-06-28T06:49:07.398Z,6.64
2023-06-28T06:51:37.212Z,6.28
2023-06-28T06:54:07.683Z,6.53
2023-06-28T06:56:39.992Z,6.79
2023-06-28T06:59:09.696Z,6.28
2023-06-28T07:01:39.465Z,6.55
2023-06-28T07:04:09.335Z,7.20
2023-06-28T07:06:39.953Z,6.75
2023-06-28T07:09:10.310Z,7.01
2023-06-28T07:11:42.699Z,7.27
2023-06-28T07:14:12.467Z,6.77
2023-06-28T07:16:46.391Z,6.97
2023-06-28T07:19:16.801Z,7.33
2023-06-28T07:21:46.576Z,7.18
2023-06-28T07:24:16.305Z,7.41
2023-06-28T07:26:48.577Z,7.30
2023-06-28T07:29:18.348Z,7.84
2023-06-28T07:31:48.109Z,7.59
2023-06-28T07:34:17.876Z,7.70
2023-06-28T07:36:47.550Z,7.68
2023-06-28T07:39:17.247Z,7.35
2023-06-28T07:41:49.588Z,7.47
2023-06-28T07:44:19.423Z,7.37
2023-06-28T07:46:49.217Z,6.85
2023-06-28T07:49:19.042Z,6.55
2023-06-28T07:51:49.148Z,6.90
2023-06-28T07:54:32.395Z,6.77
2023-06-28T07:57:06.012Z,6.76
2023-06-28T07:59:35.774Z,6.90
2023-06-28T08:02:05.510Z,7.27
2023-06-28T08:04:36.412Z,6.71
2023-06-28T08:07:08.433Z,6.98
2023-06-28T08:09:38.260Z,6.77
2023-06-28T08:12:11.311Z,6.45
2023-06-28T08:14:41.352Z,7.03
2023-06-28T08:17:11.111Z,7.01
2023-06-28T08:19:40.874Z,6.96
2023-06-28T08:22:10.623Z,6.59
2023-06-28T08:24:40.340Z,7.02
2023-06-28T08:27:12.767Z,6.90
2023-06-28T08:29:42.544Z,6.28
2023-06-28T08:32:13.601Z,6.47
2023-06-28T08:34:43.420Z,6.34
2023-06-28T08:37:13.181Z,6.41
2023-06-28T08:39:43.013Z,6.47
2023-06-28T08:42:16.450Z,6.44
2023-06-28T08:44:47.497Z,6.66
2023-06-28T08:47:17.362Z,6.75
2023-06-28T08:49:47.220Z,6.50
2023-06-28T08:52:18.724Z,6.68
2023-06-28T08:54:48.770Z,6.40
2023-06-28T08:57:21.575Z,7.55
2023-06-28T08:59:51.388Z,7.38
2023-06-28T09:02:21.864Z,7.15
2023-06-28T09:04:52.036Z,7.73
2023-06-28T09:07:22.431Z,7.56
2023-06-28T09:09:52.982Z,7.15
2023-06-28T09:12:26.407Z,6.86
2023-06-28T09:14:56.981Z,6.91
2023-06-28T09:17:26.728Z,7.56
2023-06-28T09:19:56.621Z,7.23
2023-06-28T09:22:26.537Z,7.72
2023-06-28T09:24:56.359Z,8.04
2023-06-28T09:27:28.649Z,7.71
2023-06-28T09:30:20.468Z,7.96
2023-06-28T09:32:51.995Z,8.07
2023-06-28T09:35:22.354Z,7.89
2023-06-28T09:37:53.094Z,7.96
2023-06-28T09:40:23.113Z,7.78
2023-06-28T09:42:55.522Z,7.71
2023-06-28T09:45:29.723Z,7.77
2023-06-28T09:48:00.988Z,9.43
2023-06-28T09:50:41.153Z,8.99
2023-06-28T09:53:12.330Z,7.80
2023-06-28T09:55:42.992Z,8.26
2023-06-28T09:58:16.830Z,8.29
2023-06-28T10:00:47.289Z,7.91
2023-06-28T10:03:18.274Z,8.51
2023-06-28T10:05:49.177Z,8.61
2023-06-28T10:08:19.704Z,8.56
2023-06-28T10:10:50.850Z,8.45
2023-06-28T10:13:24.077Z,8.85
2023-06-28T10:15:58.093Z,8.41
2023-06-28T10:18:27.872Z,7.85
2023-06-28T10:20:59.076Z,7.69
2023-06-28T10:23:30.612Z,7.50
2023-06-28T10:26:01.701Z,7.49
2023-06-28T10:28:35.844Z,7.40
2023-06-28T10:31:06.837Z,7.51
2023-06-28T10:33:38.043Z,6.99
2023-06-28T10:36:08.521Z,7.34
2023-06-28T10:38:39.974Z,7.44
2023-06-28T10:41:10.095Z,7.79
2023-06-28T10:43:42.579Z,7.28
2023-06-28T10:46:24.216Z,7.29
2023-06-28T10:48:56.155Z,7.62
2023-06-28T10:51:29.773Z,7.85
2023-06-28T10:54:09.910Z,7.66
2023-06-28T10:56:41.071Z,7.55
2023-06-28T10:59:13.598Z,7.55
2023-06-28T11:01:55.393Z,7.76
2023-06-28T11:04:26.433Z,7.76
2023-06-28T11:07:11.154Z,7.70
2023-06-28T11:09:40.927Z,7.91
2023-06-28T11:12:17.353Z,8.30
2023-06-28T11:14:49.665Z,7.69
2023-06-28T11:17:19.481Z,7.88
2023-06-28T11:19:49.323Z,8.00
2023-06-28T11:22:19.654Z,8.12
2023-06-28T11:24:50.627Z,8.28
2023-06-28T11:27:21.118Z,8.50
2023-06-28T11:30:01.468Z,8.30
2023-06-28T11:32:32.972Z,8.79
2023-06-28T11:35:03.770Z,8.20
2023-06-28T11:37:34.249Z,8.57
2023-06-28T11:40:04.436Z,8.23
2023-06-28T11:42:34.210Z,8.43
2023-06-28T11:45:06.835Z,8.20
2023-06-28T11:47:36.730Z,8.53
2023-06-28T11:50:08.122Z,8.04
2023-06-28T11:52:37.876Z,8.18
2023-06-28T11:55:08.137Z,8.10
2023-06-28T11:57:46.126Z,7.59
2023-06-28T12:00:19.945Z,7.44
2023-06-28T12:02:50.608Z,7.37
2023-06-28T12:05:21.155Z,7.41
2023-06-28T12:07:51.546Z,7.31
2023-06-28T12:10:21.473Z,7.43
2023-06-28T12:12:51.336Z,7.72
2023-06-28T12:15:26.998Z,7.94
2023-06-28T12:17:56.792Z,7.21
2023-06-28T12:20:26.857Z,7.57
2023-06-28T12:22:58.720Z,8.85
2023-06-28T12:25:29.784Z,7.97
2023-06-28T12:28:06.210Z,8.00
2023-06-28T12:30:38.565Z,7.65
2023-06-28T15:42:10.064Z,10.05
2023-06-28T15:44:39.870Z,8.82
2023-06-28T15:47:09.999Z,8.32
2023-06-28T15:49:39.695Z,7.79
2023-06-28T15:52:09.871Z,7.70
2023-06-28T15:54:40.114Z,7.94
2023-06-28T15:57:12.538Z,8.08
2023-06-28T15:59:42.281Z,7.94
2023-06-28T16:02:15.129Z,9.04
2023-06-28T16:06:28.627Z,9.10
2023-06-28T16:08:58.390Z,8.50
2023-06-28T16:11:30.495Z,8.43
2023-06-28T16:14:00.261Z,7.83
2023-06-28T16:16:30.316Z,7.71
2023-06-28T16:19:00.027Z,8.13
2023-06-28T16:21:32.445Z,7.81
2023-06-28T16:24:02.129Z,8.08
2023-06-28T16:26:32.023Z,8.23
2023-06-28T16:29:01.761Z,8.51
2023-06-28T16:31:34.027Z,8.42
2023-06-28T16:34:03.945Z,8.18
2023-06-28T16:36:36.190Z,8.04
2023-06-28T16:39:06.004Z,8.05
2023-06-28T16:41:35.986Z,8.45
2023-06-28T16:44:05.755Z,9.06
2023-06-28T16:46:35.456Z,9.48
2023-06-28T16:49:05.759Z,9.31
2023-06-28T16:51:38.153Z,10.63
2023-06-28T16:54:07.882Z,10.57
2023-06-28T16:56:37.701Z,10.50
2023-06-28T16:59:07.381Z,10.02
2023-06-28T17:01:37.186Z,10.24
2023-06-28T17:04:07.136Z,10.18
2023-06-28T17:06:39.507Z,10.80
2023-06-28T17:09:09.306Z,10.80
2023-06-28T17:11:39.024Z,10.86
2023-06-28T17:14:09.460Z,11.09
2023-06-28T17:16:39.284Z,11.84
2023-06-28T17:19:08.992Z,11.98
2023-06-28T17:21:41.363Z,10.80
2023-06-28T17:24:11.286Z,10.47
2023-06-28T17:26:40.998Z,10.70
2023-06-28T17:29:12.447Z,10.59
2023-06-28T17:31:42.193Z,11.34
2023-06-28T17:34:11.960Z,11.20
2023-06-28T17:36:47.910Z,10.71
2023-06-28T17:39:17.954Z,11.21
2023-06-28T17:41:48.125Z,11.61
2023-06-28T17:44:17.845Z,11.41
2023-06-28T17:46:47.813Z,11.29
2023-06-28T17:49:17.507Z,10.77
2023-06-28T17:51:49.823Z,12.18
2023-06-28T17:54:19.590Z,11.82
2023-06-28T17:56:49.306Z,11.51
2023-06-28T17:59:19.082Z,10.88
2023-06-28T18:01:48.928Z,11.35
2023-06-28T18:04:19.072Z,11.97
2023-06-28T18:06:52.255Z,11.46
2023-06-28T18:09:22.022Z,11.54
2023-06-28T18:11:53.251Z,11.46
2023-06-28T18:14:22.988Z,11.50
2023-06-28T18:16:53.028Z,11.99
2023-06-28T18:19:22.807Z,12.27
2023-06-28T18:21:55.153Z,12.85
2023-06-28T18:24:24.912Z,13.38
2023-06-28T18:26:54.625Z,14.00
2023-06-28T18:29:24.436Z,17.27
2023-06-28T18:31:54.261Z,19.81
2023-06-28T18:34:24.009Z,21.47
2023-06-28T18:36:56.344Z,22.23
2023-06-28T18:39:26.088Z,22.32
2023-06-28T18:41:55.983Z,22.48
2023-06-28T18:44:25.723Z,21.81
2023-06-28T18:46:55.542Z,22.42
2023-06-28T18:49:25.414Z,23.30
2023-06-28T18:51:57.784Z,22.70
2023-06-28T18:54:29.711Z,22.06
2023-06-28T18:56:59.688Z,21.81
2023-06-28T18:59:29.488Z,21.80
2023-06-28T19:01:59.312Z,21.78
2023-06-28T19:04:29.114Z,21.11
2023-06-28T19:07:02.002Z,22.36
2023-06-28T19:09:31.847Z,22.49
2023-06-28T19:12:01.577Z,23.03
2023-06-28T19:14:31.382Z,22.87
2023-06-28T19:17:01.245Z,22.43
2023-06-28T19:19:31.035Z,22.26
2023-06-28T19:22:03.442Z,22.69
2023-06-28T19:24:33.922Z,21.80
2023-06-28T19:27:04.522Z,23.63
2023-06-28T19:29:34.304Z,22.77
2023-06-28T19:32:04.645Z,21.99
2023-06-28T19:34:35.311Z,21.94
2023-06-28T19:37:07.909Z,22.66
2023-06-28T19:39:37.682Z,22.16
2023-06-28T19:42:07.843Z,22.23
2023-06-28T19:44:37.627Z,22.00
2023-06-28T19:47:07.681Z,22.51
2023-06-28T19:49:37.598Z,22.37
2023-06-28T19:52:10.117Z,22.15
2023-06-28T19:54:39.962Z,22.30
2023-06-28T19:57:11.320Z,21.58
2023-06-28T19:59:42.883Z,22.15
2023-06-28T20:02:12.990Z,22.49
2023-06-28T20:04:43.121Z,22.34
2023-06-28T20:07:15.800Z,22.32
2023-06-28T20:09:45.791Z,23.18
2023-06-28T20:12:15.614Z,22.24
2023-06-28T20:14:45.817Z,23.27
2023-06-28T20:17:15.605Z,22.45
2023-06-28T20:19:45.452Z,22.25
2023-06-28T20:22:17.916Z,22.63
2023-06-28T20:24:47.744Z,21.74
2023-06-28T20:27:17.536Z,22.13
2023-06-28T20:29:47.328Z,21.79
2023-06-28T20:32:17.303Z,21.70
2023-06-28T20:34:47.047Z,21.59
2023-06-28T20:37:19.373Z,22.44
2023-06-28T20:39:49.208Z,23.39
2023-06-28T20:42:21.175Z,23.80
2023-06-28T20:44:50.952Z,22.00
2023-06-28T20:47:22.587Z,22.80
2023-06-28T20:49:52.979Z,22.70
2023-06-28T20:52:25.314Z,22.92
2023-06-28T20:54:55.098Z,22.79
2023-06-28T20:57:25.968Z,22.78
2023-06-28T21:00:00.460Z,23.33
2023-06-28T21:02:30.878Z,23.13
2023-06-28T21:05:01.472Z,23.16
2023-06-28T21:07:34.349Z,22.90
2023-06-28T21:10:04.132Z,22.35
2023-06-28T21:12:34.061Z,22.38
2023-06-28T21:15:04.163Z,23.92
2023-06-28T21:17:34.038Z,23.43
2023-06-28T21:20:04.917Z,24.20
2023-06-28T21:22:39.772Z,23.76
2023-06-28T21:25:09.958Z,24.38
2023-06-28T21:27:39.754Z,26.54
2023-06-28T21:30:10.835Z,27.08
2023-06-28T21:32:40.583Z,26.67
2023-06-28T21:35:11.177Z,26.74
2023-06-28T21:37:43.553Z,26.46
2023-06-28T21:40:13.539Z,25.87
2023-06-28T21:42:43.274Z,26.19
2023-06-28T21:45:13.563Z,25.48
2023-06-28T21:47:43.414Z,25.36
2023-06-28T21:50:13.559Z,26.21
2023-06-28T21:52:45.879Z,24.27
2023-06-28T21:55:15.660Z,24.72
2023-06-28T21:57:45.591Z,24.60
2023-06-28T22:00:25.864Z,25.31
2023-06-28T22:02:56.041Z,25.42
2023-06-28T22:05:26.370Z,26.16
2023-06-28T22:07:58.882Z,25.65
2023-06-28T22:10:29.295Z,27.61
2023-06-28T22:12:59.475Z,26.99
2023-06-28T22:15:33.585Z,26.80
2023-06-28T22:18:03.654Z,28.15
2023-06-28T22:20:38.143Z,27.52
2023-06-28T22:23:11.180Z,27.22
2023-06-28T22:25:43.194Z,28.54
2023-06-28T22:28:13.245Z,28.09
2023-06-28T22:30:43.079Z,27.69
2023-06-28T22:33:12.850Z,29.87
2023-06-28T22:35:42.867Z,28.86
2023-06-28T22:38:15.333Z,28.61
2023-06-28T22:40:45.117Z,27.89
2023-06-28T22:43:14.892Z,28.91
2023-06-28T22:45:44.750Z,29.22
2023-06-28T22:48:17.202Z,29.09
2023-06-28T22:50:49.072Z,29.32
2023-06-28T22:53:27.493Z,29.13
2023-06-28T22:55:57.622Z,29.57
2023-06-28T22:58:27.802Z,28.75
2023-06-28T23:00:58.744Z,29.71
2023-06-28T23:03:28.514Z,29.32
2023-06-28T23:06:00.108Z,29.66
2023-06-28T23:08:32.964Z,28.80
2023-06-28T23:11:02.876Z,29.88
2023-06-28T23:13:32.627Z,29.67
2023-06-28T23:16:02.844Z,29.76
2023-06-28T23:18:32.693Z,30.23
2023-06-28T23:21:02.847Z,29.84
2023-06-28T23:23:37.023Z,30.52
2023-06-28T23:26:06.834Z,30.00
2023-06-28T23:28:37.270Z,30.29
2023-06-28T23:31:07.289Z,30.53
2023-06-28T23:33:38.384Z,29.33
2023-06-28T23:36:08.341Z,29.59
2023-06-28T23:38:40.793Z,30.08
2023-06-28T23:41:11.037Z,29.63
2023-06-28T23:43:41.286Z,29.48
2023-06-28T23:46:13.426Z,29.63
2023-06-28T23:48:45.661Z,30.12
2023-06-28T23:51:15.463Z,30.14
2023-06-28T23:53:47.876Z,31.69
2023-06-28T23:56:17.684Z,30.80
2023-06-28T23:58:47.470Z,29.52
